»·PEaware :: N1127N KLAX-KSNA

N1127N :: KLAX-KSNA

FLIGHT INFORMATION

Flight Status: Arrived
Operator: Privately registered:
United States
More flights under this callsign
Pilot: Alexander M. (19327)
Aircraft: CESSNA 550 CITATION 2/S2/BRAVO
(C550)
More flights by this aircraft type
Origin: KLAX Los Angeles Intl
United States
Destination: KSNA John Wayne-Orange Co
United States
More flights between these airports :: More routes between these airports
Route: +LAXX1 SLI
File this flight plan on PilotEdge
Remarks: Pilotedge I-06 Rating...on stream! twitch.tv / allaboutflight
Altitude:
(Current/Filed)
5,000ft
Speed:
(Current/Filed)
220kts
Departed: 31-Oct-18 08:19 PM
Arrived: 31-Oct-18 08:52 PM
Distance/Time
Traveled:
1nm/0:33
Distance/Time
To Go:
Arrived

Flight Plot

Page will automatically refresh every two minutes.

Flight plan parsing failed; only flown route is shown


Map Options




Map Legend


Flown Route
Filed Route
Departure Airport
Arrival Airport
Navaid (VOR, NDB)
Fix

Horizontal Profiles

Position Reports

Time Latitude Longitude Heading Altitude Ground
Speed
31-Oct-18 19:54 33.933747 -118.398758 172 110ft 0kts
31-Oct-18 19:55 33.933747 -118.398758 172 110ft 0kts
31-Oct-18 19:56 33.933747 -118.398758 172 110ft 0kts
31-Oct-18 19:57 33.933747 -118.398758 172 110ft 0kts
31-Oct-18 19:58 33.933747 -118.398758 172 110ft 0kts
31-Oct-18 19:59 33.933747 -118.398758 172 110ft 0kts
31-Oct-18 20:00 33.933747 -118.398758 172 110ft 0kts
31-Oct-18 20:01 33.933747 -118.398758 172 110ft 0kts
31-Oct-18 20:02 33.933747 -118.398758 172 110ft 0kts
31-Oct-18 20:03 33.933747 -118.398758 172 110ft 0kts
31-Oct-18 20:04 33.933747 -118.398758 172 110ft 0kts
31-Oct-18 20:05 33.933747 -118.398758 172 110ft 0kts
31-Oct-18 20:06 33.933747 -118.398758 172 110ft 0kts
31-Oct-18 20:07 33.933747 -118.398758 172 110ft 0kts
31-Oct-18 20:08 33.933747 -118.398758 172 110ft 0kts
31-Oct-18 20:09 33.933747 -118.398758 172 110ft 0kts
31-Oct-18 20:10 33.933747 -118.398758 172 110ft 0kts
31-Oct-18 20:11 33.933747 -118.398758 171 110ft 0kts
31-Oct-18 20:12 33.933747 -118.398758 171 110ft 0kts
31-Oct-18 20:13 33.933747 -118.398758 172 110ft 0kts
31-Oct-18 20:14 33.933741 -118.398757 171 110ft 0kts
31-Oct-18 20:15 33.934257 -118.398148 353 110ft 0kts
31-Oct-18 20:16 33.934766 -118.396076 83 110ft 14kts
31-Oct-18 20:17 33.935092 -118.392815 86 110ft 13kts
31-Oct-18 20:18 33.935481 -118.389082 83 110ft 5kts
31-Oct-18 20:19 33.935853 -118.385450 83 110ft 13kts
31-Oct-18 20:20 33.936447 -118.382762 10 110ft 0kts
31-Oct-18 20:21 33.936266 -118.393409 263 124ft 138kts
31-Oct-18 20:22 33.928513 -118.444855 255 1514ft 160kts
31-Oct-18 20:23 33.905356 -118.488684 234 2709ft 144kts
31-Oct-18 20:24 33.878992 -118.519472 193 3754ft 125kts
31-Oct-18 20:25 33.840632 -118.529633 191 4932ft 178kts
31-Oct-18 20:26 33.783509 -118.544283 191 5002ft 223kts
31-Oct-18 20:27 33.727961 -118.539503 143 5006ft 204kts
31-Oct-18 20:28 33.687485 -118.496541 117 5006ft 192kts
31-Oct-18 20:29 33.666150 -118.438783 112 5006ft 189kts
31-Oct-18 20:30 33.654690 -118.382094 70 5004ft 170kts
31-Oct-18 20:31 33.684728 -118.342868 41 5006ft 159kts
31-Oct-18 20:32 33.716367 -118.309404 40 5006ft 153kts
31-Oct-18 20:33 33.745430 -118.276110 63 5001ft 137kts
31-Oct-18 20:34 33.745755 -118.232627 92 4534ft 139kts
31-Oct-18 20:35 33.744513 -118.178526 79 4030ft 189kts
31-Oct-18 20:36 33.765819 -118.121325 68 4007ft 195kts
31-Oct-18 20:37 33.781157 -118.061576 72 4003ft 176kts
31-Oct-18 20:38 33.798619 -118.016362 63 4004ft 152kts
31-Oct-18 20:39 33.813663 -117.979215 62 4004ft 137kts
31-Oct-18 20:41 33.828898 -117.941402 62 4003ft 125kts
31-Oct-18 20:42 33.843290 -117.905723 62 4013ft 160kts
31-Oct-18 20:43 33.863357 -117.855704 63 4004ft 171kts
31-Oct-18 20:44 33.882611 -117.807524 62 4003ft 153kts
31-Oct-18 20:45 33.900054 -117.763878 62 4008ft 133kts
31-Oct-18 20:46 33.914579 -117.727460 64 4006ft 116kts
31-Oct-18 20:47 33.893005 -117.716424 223 3203ft 128kts
31-Oct-18 20:48 33.873364 -117.747421 207 3309ft 120kts
31-Oct-18 20:49 33.842565 -117.764817 200 3075ft 133kts
31-Oct-18 20:50 33.800416 -117.788239 205 2646ft 187kts
31-Oct-18 20:51 33.762240 -117.812175 211 1901ft 170kts
31-Oct-18 20:52 33.728496 -117.835505 205 1234ft 107kts
31-Oct-18 20:53 33.702978 -117.851611 206 582ft 114kts
31-Oct-18 20:54 33.677487 -117.867710 206 61ft 92kts
31-Oct-18 20:55 33.669477 -117.871992 146 61ft 6kts
31-Oct-18 20:56 33.668720 -117.870588 8 61ft 0kts
31-Oct-18 20:57 33.668720 -117.870588 8 61ft 0kts
31-Oct-18 20:58 33.933747 -118.398758 171 110ft 0kts
31-Oct-18 20:59 33.933747 -118.398758 171 110ft 0kts
31-Oct-18 21:00 33.933747 -118.398758 171 110ft 0kts
31-Oct-18 21:01 33.933747 -118.398758 171 110ft 0kts
31-Oct-18 21:02 33.933747 -118.398758 171 110ft 0kts
31-Oct-18 21:03 33.933747 -118.398758 171 110ft 0kts
31-Oct-18 21:04 33.933747 -118.398758 171 110ft 0kts
31-Oct-18 21:05 33.933747 -118.398758 171 110ft 0kts
31-Oct-18 21:06 33.933747 -118.398758 171 110ft 0kts
31-Oct-18 21:07 33.933747 -118.398758 171 110ft 0kts
31-Oct-18 21:08 33.933747 -118.398758 171 110ft 0kts
31-Oct-18 21:09 33.933747 -118.398758 171 110ft 0kts

Navigation Log

Ident Type
Flight plan parsing failed, navigation log unavailable